| Station | Date | Time | Temp (°F) | RH (%) | Dew Pt (°F) | Wind Dir (°) | Wind Spd (mph) | Wind Gust (mph) | Heat Index (°F) | Solar Rad (W/m2) | Latest Rain (In) | Daily Rain (In) | Daily Max Temp (°F) | Daily Min Temp (°F) | Daily Max Wind (mph) | Daily ETo (in) | Daily Leaf Wet (Hrs) |
|---|---|---|---|---|---|---|---|---|---|---|---|---|---|---|---|---|---|
| Utter - Wilson | 9/2/26 | 1245 | 76.3 2.2 | 51 3 | 56.7 3.7 | SW | 218 | 7.3 0.3 | 11.4 0.5 | - | 700 62 | 0.00 | 0.00 | 77.2 1.4 | 57.7 0.7 | 13.3 4.1 | 0.042 0.007 | - |
| Clarksburg | 9/2/26 | 1245 | 75.9 3.9 | 45 0 | 53.0 3.2 | SW | 219 | 5.1 1.0 | 9.9 4.3 | - | 546 48 | 0.00 | 0.00 | 76.9 2.7 | 54.7 2.8 | 14.5 1.5 | 0.044 0.006 | - |
| Gorter - Wilson | 9/2/26 | 1245 | 78.6 4.0 | 49 1 | 57.8 2.9 | S | 179 | 5.2 1.1 | 11.1 4.8 | - | 897 148 | 0.00 | 0.00 | 79.8 3.8 | 55.2 1.0 | 11.7 4.2 | 0.048 0.000 | - |
| Clarksburg-3A2 | 9/2/26 | 1245 | 75.5 1.5 | 48 4 | 54.3 3.5 | SW | 235 | 4.9 6.7 | 10.6 8.3 | - | 721 29 | 0.00 | 0.00 | 76.4 1.2 | 56.9 1.6 | 14.9 5.3 | 0.043 0.012 | - |
| Courtland-C3 | 9/2/26 | 1245 | 74.5 1.9 | 50 5 | 54.9 4.7 | SE | 142 | 2.6 3.7 | 7.8 4.0 | - | - | 0.00 | 0.00 | 75.8 1.5 | 53.8 2.3 | 9.1 6.2 | - | - |
| Pacific Fruit | 9/2/26 | 1245 | 79.6 2.6 | 46 4 | 56.9 4.7 | SSW | 204 | 4.3 2.0 | 10.6 1.9 | - | 552 66 | 0.00 | 0.00 | 81.3 2.9 | 58.5 0.4 | 12.6 1.5 | 0.051 0.000 | - |
| Ryer Island South | 9/2/26 | 1245 | 74.5 0.5 | 51 11 | 55.4 5.8 | W | 278 | 5.4 0.4 | 10.7 1.4 | - | 282 442 | 0.00 | 0.00 | 77.4 1.7 | 53.3 6.9 | 10.7 4.1 | 0.049 0.003 | 0.0 0.0 |
| Guard Rd (Lodi WSW) | 9/2/26 | 1245 | 76.0 2.4 | 46 4 | 53.8 5.0 | NW | 305 | 2.3 1.1 | 6.4 2.5 | - | 697 14 | 0.00 | 0.00 | 77.4 2.6 | 51.1 1.7 | 9.9 2.8 | 0.053 0.002 | - |
| Claussen | 9/2/26 | 1245 | 84.9 4.0 | 37 2 | 55.6 4.7 | WNW | 286 | 3.2 0.3 | 7.9 1.3 | - | 665 18 | 0.00 | 0.00 | 86.8 5.1 | 57.2 2.8 | 8.6 2.5 | 0.054 0.006 | - |
| Howard | 9/2/26 | 1245 | 74.8 1.9 | 50 1 | 55.1 2.2 | SW | 218 | 3.1 2.0 | 6.1 5.3 | - | 636 203 | 0.00 | 0.00 | 75.8 2.0 | 52.9 1.0 | 8.4 4.7 | 0.041 0.003 | - |
| Valley Oak | 9/2/26 | 1245 | 74.6 2.6 | 43 1 | 50.7 1.5 | W | 262 | 5.0 0.6 | 8.6 2.8 | - | 428 265 | 0.00 | 0.00 | 75.4 2.7 | 50.8 0.7 | 9.2 6.1 | 0.045 0.001 | - |
| Thornton | 9/2/26 | 1245 | 73.9 1.2 | 50 4 | 54.0 1.2 | SSW | 199 | 3.0 3.9 | 8.2 6.1 | - | 361 282 | 0.00 | 0.00 | 76.1 0.1 | 51.3 0.0 | 9.3 5.0 | 0.036 0.013 | 0.0 0.0 |
| Kost Rd | 9/2/26 | 1245 | 77.6 1.0 | 48 3 | 56.2 2.8 | W | 273 | 3.9 0.4 | 7.6 2.3 | - | 375 321 | 0.00 | 0.00 | 80.1 2.2 | 55.3 0.2 | 7.8 4.6 | 0.041 0.004 | - |
| DeVries Road-North | 9/2/26 | 1245 | 75.0 2.0 | 52 4 | 56.3 4.0 | W | 265 | 4.7 0.2 | 10.0 0.4 | - | 407 176 | 0.00 | 0.00 | 77.1 2.4 | 49.9 0.7 | 11.0 2.1 | 0.042 0.005 | - |
| Lodi (LangeTwins) | 9/2/26 | 1245 | 75.4 2.6 | 52 2 | 56.7 3.4 | SSE | 152 | 3.2 0.8 | 7.7 2.2 | - | 521 120 | 0.00 | 0.00 | 77.4 3.2 | 51.2 0.8 | 8.8 3.9 | - | 0.0 1.2 |
| Acampo | 9/2/26 | 1245 | 75.6 1.7 | 41 3 | 50.5 3.7 | WSW | 244 | 2.7 1.4 | 7.4 1.7 | - | 456 158 | - | 0.00 | 77.7 3.2 | 50.6 0.4 | 7.8 3.0 | 0.050 0.001 | 0.0 0.0 |
| Lodi West | 9/2/26 | 1245 | 75.0 2.7 | 42 3 | 50.4 4.6 | WNW | 283 | 4.4 1.7 | 9.1 3.2 | - | 686 140 | 0.00 | 0.00 | 76.6 2.9 | 51.3 2.4 | 12.8 7.0 | - | 0.0 0.0 |
| Sloughhouse | 9/2/26 | 1245 | 76.4 2.2 | 39 1 | 49.7 2.9 | SW | 235 | 3.6 2.0 | 10.5 4.5 | - | 18 1 | 0.00 | 0.00 | 78.1 2.6 | 50.2 5.4 | 15.5 0.6 | 0.014 0.007 | - |
| Sheldon | 9/2/26 | 1245 | 75.9 2.1 | 44 0 | 52.6 2.0 | SSW | 201 | 3.4 2.3 | 8.2 4.5 | - | 667 195 | 0.00 | 0.00 | 76.5 2.0 | 54.1 0.4 | 11.6 13.4 | 0.048 0.002 | 0.0 0.0 |
| Gill Ranch | 9/2/26 | 1245 | 75.9 2.8 | 41 1 | 50.7 3.3 | W | 276 | 6.5 2.4 | 12.0 1.5 | - | 634 158 | 0.00 | 0.00 | 77.5 3.6 | 52.2 1.6 | 13.4 1.5 | 0.053 0.003 | - |
| Colony 1 | 9/2/26 | 1245 | 76.8 2.3 | 44 1 | 53.1 2.6 | WSW | 242 | 4.9 3.2 | 11.5 3.6 | - | 509 282 | 0.00 | 0.00 | 77.9 1.3 | 54.5 0.0 | 11.5 3.7 | 0.047 0.007 | - |
| Colony 2 | 9/2/26 | 1245 | 77.3 2.6 | 42 1 | 52.4 2.9 | SW | 225 | 5.2 0.6 | 9.6 2.8 | - | 694 280 | 0.00 | 0.00 | 78.9 3.5 | 53.4 1.1 | 11.0 4.0 | 0.048 0.003 | - |
| Borden40 | 9/2/26 | 1245 | 77.1 3.3 | 41 1 | 51.6 3.6 | SW | 215 | 2.9 2.0 | 6.1 8.5 | - | 721 117 | 0.00 | 0.00 | 77.9 3.1 | 51.5 1.2 | 9.9 4.7 | 0.047 0.002 | - |
| Sierra Loma-L27 | 9/2/26 | 1230 | 79.0 3.4 | 48 0 | 57.7 3.0 | ESE | 118 | 3.1 0.5 | 7.0 0.6 | - | - | 0.00 | 0.00 | 80.7 4.3 | 53.9 1.1 | 8.0 3.4 | - | - |
| Borden Hills | 9/2/26 | 1245 | 79.6 4.2 | 46 1 | 57.1 3.1 | NW | 317 | 2.9 1.8 | 8.9 1.7 | 80.1 | 669 35 | 0.00 | 0.00 | 81.4 4.3 | 53.9 0.5 | 9.6 4.0 | 0.052 0.001 | - |
| Alabama Ranch | 8/20/26 | 1215 | 81.2 2.2 | 42 3 | 56.0 0.2 | W | 259 | 5.2 1.4 | 9.6 1.0 | - | 830 25 | 0.00 | 0.00 | 81.9 1.9 | 53.3 1.1 | 12.5 3.9 | 0.061 0.001 | - |
| 5 Wells | 9/2/26 | 1245 | 75.9 3.1 | 42 1 | 51.3 3.4 | WSW | 247 | 3.9 2.4 | 10.0 9.9 | - | 615 209 | 0.00 | 0.00 | 77.4 3.3 | 52.6 1.3 | 11.8 8.0 | 0.053 0.001 | - |
| Simmerhorn | 9/2/26 | 1245 | 77.8 3.0 | 44 1 | 54.0 3.3 | - | - | - | - | - | - | - | 79.5 3.9 | 52.5 1.0 | - | - | - |
| Alta Mesa Rd | 9/2/26 | 1230 | 75.4 3.3 | 44 1 | 52.0 3.4 | W | 280 | 4.4 1.3 | 7.9 4.2 | - | 515 12 | 0.00 | 0.00 | 76.5 2.7 | 51.4 0.1 | 11.6 2.0 | 0.050 0.006 | - |
| Gilbeau Ranch | 9/2/26 | 1245 | 76.7 4.5 | 41 1 | 51.0 3.4 | SW | 219 | 2.9 1.4 | 9.1 0.0 | - | 514 27 | 0.00 | 0.00 | 77.4 3.5 | 52.1 3.2 | 9.3 1.9 | 0.046 0.004 | - |
| Lockeford | 9/2/26 | 1245 | 76.4 3.2 | 46 1 | 54.4 3.3 | SW | 223 | 2.8 0.2 | 8.2 1.7 | - | 816 49 | 0.00 | 0.00 | 76.5 3.1 | 49.6 1.9 | 9.9 2.2 | 0.051 0.000 | 0.0 0.0 |
| Acampo (Kappos) | 9/2/26 | 1245 | 74.5 2.1 | 47 3 | 53.2 3.6 | WSW | 245 | 5.0 0.7 | 10.3 1.2 | - | 560 267 | 0.00 | 0.00 | 75.3 2.2 | 52.8 0.7 | 11.5 0.6 | 0.050 0.005 | - |
| Victor - N (Katusha) | 9/2/26 | 1230 | 77.2 4.6 | 38 1 | 50.0 3.6 | SW | 229 | 4.0 0.7 | 8.1 0.3 | - | - | 0.00 | 0.00 | 78.3 5.1 | 49.2 1.4 | 9.5 0.3 | - | - |
| Teresi-Alpine Rd (East Lodi) | 9/2/26 | 1245 | 78.4 4.5 | 37 1 | 50.0 3.4 | W | 274 | 5.9 2.6 | 11.8 3.8 | - | - | 0.00 | 0.00 | 79.9 5.2 | 51.4 1.8 | 11.8 1.6 | - | - |
| Live Oak | 9/2/26 | 1245 | 79.9 7.1 | 40 3 | 53.5 4.2 | W | 261 | 2.9 0.0 | 9.4 0.1 | - | 0 0 | 0.00 | 0.00 | 80.5 4.3 | 49.7 1.5 | 9.4 4.9 | 0.007 0.002 | - |
| Lone Oak-L28 | 9/2/26 | 1245 | 77.2 3.7 | 47 0 | 55.6 3.3 | SW | 230 | 4.1 0.9 | 9.6 1.5 | - | - | 0.00 | 0.00 | 78.7 3.9 | 48.6 0.6 | 9.6 5.5 | - | - |
| Linden | 9/2/26 | 1245 | 79.2 4.6 | 41 0 | 53.6 4.3 | WNW | 287 | 2.8 0.3 | 7.2 0.6 | - | - | - | 0.00 | 80.3 4.5 | 49.3 1.3 | 9.8 1.1 | - | 0.0 0.0 |
| Farmington (Mobley100) | 9/2/26 | 1245 | 76.3 2.0 | 46 5 | 53.7 5.2 | NNE | 14 | 1.4 0.4 | 5.2 1.1 | - | - | - | - | 76.7 1.8 | 52.0 2.7 | 5.2 0.9 | - | - |
| Collegeville | 9/2/26 | 1245 | 77.1 2.9 | 39 3 | 50.6 4.3 | NW | 324 | 3.4 0.3 | 12.4 3.0 | - | 777 19 | 0.00 | 0.00 | 77.3 2.6 | 50.4 1.4 | 12.4 2.3 | 0.050 0.002 | - |
| Oakdale North (28 Mile Rd) | 9/2/26 | 1245 | 79.1 4.3 | 34 4 | 48.4 0.5 | WNW | 298 | 0.4 0.5 | 5.3 0.6 | - | - | - | - | 79.4 3.9 | 52.0 0.5 | 6.8 1.0 | - | - |
| Escalon | 9/2/26 | 1245 | 78.3 3.8 | 41 1 | 52.8 4.0 | NE | 49 | 1.7 0.9 | 5.2 1.8 | - | - | 0.00 | 0.00 | 79.6 4.2 | 52.4 2.1 | 6.3 4.6 | - | 0.0 0.0 |
| Lodi (Acampo Rd) | 9/2/26 | 1245 | 81.3 2.2 | 42 2 | 55.9 3.7 | W | 267 | 3.9 0.0 | 9.9 0.7 | - | 651 47 | 0.00 | 0.00 | 83.3 2.5 | 55.0 0.1 | 9.9 4.4 | 0.052 0.002 | - |
| Max | 84.9 | 52 | 57.8 | - | 7.3 | 12.4 | - | 897 | 0.00 | 0.00 | 86.8 | 58.5 | 15.5 | 0.054 | 0.0 | ||
| Avg | 77.0 | 44 | 53.5 | - | 3.8 | 8.9 | - | 558 | 0.00 | - | - | - | - | - | - | ||
| Min | 73.9 | 34 | 48.4 | - | 0.4 | 5.2 | - | 0 | 0.00 | 0.00 | 75.3 | 48.6 | 5.2 | 0.007 | 0.0 |